Time;durP1;ratioP1;P1;durP2;ratioP2;P2;SDS_P1;SDS_P2;PMS_P1;PMS_P2;Temp;Humidity;BMP_temperature;BMP_pressure;BME280_temperature;BME280_humidity;BME280_pressure;Samples;Min_cycle;Max_cycle;Signal;HPM_P1;HPM_P2
2023/03/04 00:00:08;;;;;;;394.40;140.80;;;;;;;5.01;100.00;99689.22;349061;28;5056;-75
2023/03/04 00:00:18;;;;;;;393.58;142.35;;;;;;;5.00;100.00;99690.09;348321;28;3982;-74
2023/03/04 00:00:29;;;;;;;393.05;141.48;;;;;;;5.05;100.00;99697.81;347611;28;4854;-74
2023/03/04 00:00:42;;;;;;;393.83;139.38;;;;;;;5.04;100.00;99695.22;349093;28;3192;-74
2023/03/04 00:00:52;;;;;;;392.85;136.07;;;;;;;5.03;100.00;99693.53;348517;28;1682;-75
2023/03/04 00:01:04;;;;;;;391.17;134.27;;;;;;;5.03;100.00;99694.38;348357;28;4054;-75
2023/03/04 00:01:15;;;;;;;387.10;134.43;;;;;;;5.03;100.00;99694.38;349314;28;5249;-75
2023/03/04 00:01:25;;;;;;;388.67;137.55;;;;;;;5.00;100.00;99692.69;346720;28;4683;-74
2023/03/04 00:01:36;;;;;;;395.40;141.45;;;;;;;5.03;100.00;99694.38;348783;28;1317;-75
2023/03/04 00:01:46;;;;;;;399.03;143.97;;;;;;;5.03;100.00;99693.53;344825;28;5132;-74
2023/03/04 00:01:57;;;;;;;396.20;141.73;;;;;;;5.01;100.00;99697.00;345880;28;1220;-75
2023/03/04 00:02:07;;;;;;;391.40;143.90;;;;;;;5.04;100.00;99700.41;347759;28;4560;-76
2023/03/04 00:02:17;;;;;;;388.48;140.38;;;;;;;5.04;100.00;99695.22;348252;28;5233;-76
2023/03/04 00:02:28;;;;;;;394.43;141.77;;;;;;;5.05;100.00;99696.94;346260;28;4464;-75
2023/03/04 00:02:38;;;;;;;395.70;137.27;;;;;;;5.06;100.00;99696.06;346907;28;2967;-75
2023/03/04 00:02:49;;;;;;;396.63;139.27;;;;;;;5.05;100.00;99700.41;346931;28;3230;-75
2023/03/04 00:02:59;;;;;;;393.27;139.40;;;;;;;5.03;100.00;99688.34;344146;28;5019;-75
2023/03/04 00:03:10;;;;;;;391.60;141.43;;;;;;;5.06;100.00;99696.06;347595;28;3826;-77
2023/03/04 00:03:21;;;;;;;394.60;145.95;;;;;;;5.06;100.00;99699.50;344760;28;5281;-75
2023/03/04 00:03:31;;;;;;;394.67;144.90;;;;;;;5.07;100.00;99700.38;348320;28;4026;-75
2023/03/04 00:03:42;;;;;;;398.33;145.67;;;;;;;5.08;100.00;99702.94;344438;28;4752;-75
2023/03/04 00:03:52;;;;;;;393.40;140.80;;;;;;;5.08;100.00;99702.09;344868;28;3895;-75
2023/03/04 00:04:02;;;;;;;393.43;139.30;;;;;;;5.07;100.00;99701.22;341407;28;4786;-73
2023/03/04 00:04:13;;;;;;;393.88;137.30;;;;;;;5.07;100.00;99690.00;342320;28;3944;-74
2023/03/04 00:04:24;;;;;;;399.77;140.50;;;;;;;5.07;100.00;99695.19;342151;28;5050;-75
2023/03/04 00:04:34;;;;;;;395.02;137.43;;;;;;;5.06;100.00;99696.06;343734;28;2892;-75
2023/03/04 00:04:46;;;;;;;393.33;138.82;;;;;;;5.07;100.00;99703.81;340083;28;5102;-77
2023/03/04 00:04:56;;;;;;;388.25;134.95;;;;;;;5.08;100.00;99704.69;340884;28;3819;-74
2023/03/04 00:05:07;;;;;;;390.80;138.18;;;;;;;5.03;100.00;99693.53;340755;28;5134;-74
2023/03/04 00:05:19;;;;;;;392.23;138.45;;;;;;;5.06;100.00;99698.66;340317;28;5007;-74
2023/03/04 00:05:30;;;;;;;392.42;139.02;;;;;;;5.10;100.00;99700.31;343204;28;5152;-76
2023/03/04 00:05:40;;;;;;;394.52;142.32;;;;;;;5.07;100.00;99698.63;339801;28;3822;-76
2023/03/04 00:05:51;;;;;;;395.77;140.97;;;;;;;5.09;100.00;99698.59;338795;29;3057;-74
2023/03/04 00:06:01;;;;;;;392.42;137.82;;;;;;;5.09;100.00;99703.78;339183;28;4513;-76
2023/03/04 00:06:11;;;;;;;389.00;134.97;;;;;;;5.07;100.00;99695.19;344479;28;1300;-75
2023/03/04 00:06:23;;;;;;;387.85;134.10;;;;;;;5.08;100.00;99702.09;338018;28;5131;-74
2023/03/04 00:06:34;;;;;;;393.23;137.98;;;;;;;5.09;100.00;99704.66;340982;28;4028;-74
2023/03/04 00:06:44;;;;;;;396.07;142.03;;;;;;;5.07;100.00;99695.19;341477;28;3313;-75
2023/03/04 00:06:55;;;;;;;391.83;141.93;;;;;;;5.07;100.00;99701.22;339932;29;1138;-75
2023/03/04 00:07:05;;;;;;;391.93;141.87;;;;;;;5.07;100.00;99701.22;338114;28;4961;-74
2023/03/04 00:07:17;;;;;;;391.23;137.80;;;;;;;5.08;100.00;99702.94;340744;29;967;-74
2023/03/04 00:07:28;;;;;;;393.05;136.27;;;;;;;5.07;100.00;99700.38;338574;29;4341;-75
2023/03/04 00:07:38;;;;;;;388.85;136.18;;;;;;;5.06;100.00;99698.66;336514;29;3918;-75
2023/03/04 00:07:49;;;;;;;392.53;138.17;;;;;;;5.04;100.00;99697.81;332103;29;4641;-75
2023/03/04 00:08:00;;;;;;;392.88;138.18;;;;;;;5.08;100.00;99699.50;333420;29;4128;-73
2023/03/04 00:08:11;;;;;;;394.48;140.90;;;;;;;5.05;100.00;99704.72;334081;29;4870;-75
2023/03/04 00:08:21;;;;;;;390.65;138.57;;;;;;;5.04;100.00;99695.22;332434;29;1338;-75
2023/03/04 00:08:31;;;;;;;390.63;140.13;;;;;;;5.07;100.00;99700.38;332106;29;4704;-75
2023/03/04 00:08:42;;;;;;;392.77;139.43;;;;;;;5.08;100.00;99702.94;330690;29;835;-74
2023/03/04 00:08:52;;;;;;;392.33;139.93;;;;;;;5.08;100.00;99691.72;331553;29;4912;-75
2023/03/04 00:09:03;;;;;;;394.52;143.10;;;;;;;5.06;100.00;99696.06;332902;29;3166;-77
2023/03/04 00:09:13;;;;;;;398.25;147.00;;;;;;;5.06;100.00;99698.66;328248;29;3782;-75
2023/03/04 00:09:24;;;;;;;400.63;146.67;;;;;;;5.08;100.00;99702.94;330324;29;1584;-74
2023/03/04 00:09:34;;;;;;;398.60;145.27;;;;;;;5.05;100.00;99692.63;327504;29;4058;-74
2023/03/04 00:09:45;;;;;;;393.80;141.00;;;;;;;5.08;100.00;99696.91;328822;29;3222;-76
2023/03/04 00:09:56;;;;;;;388.25;137.07;;;;;;;5.03;100.00;99688.34;329331;29;4002;-75
2023/03/04 00:10:08;;;;;;;387.40;133.43;;;;;;;5.08;100.00;99696.91;329144;29;5304;-78
2023/03/04 00:10:19;;;;;;;389.60;137.88;;;;;;;5.07;100.00;99695.19;326372;29;3026;-75
2023/03/04 00:10:29;;;;;;;391.40;141.30;;;;;;;5.08;100.00;99691.72;328090;30;891;-75
2023/03/04 00:10:40;;;;;;;396.47;145.30;;;;;;;5.05;100.00;99696.94;324653;29;4590;-75
2023/03/04 00:10:50;;;;;;;398.17;144.25;;;;;;;5.06;100.00;99696.91;323231;30;3368;-75
2023/03/04 00:11:01;;;;;;;396.83;143.30;;;;;;;5.07;100.00;99697.78;320071;30;4188;-76
2023/03/04 00:11:11;;;;;;;395.00;142.50;;;;;;;5.06;100.00;99693.47;321427;30;2967;-74
2023/03/04 00:11:22;;;;;;;393.00;139.07;;;;;;;5.05;100.00;99694.34;319899;30;5064;-74
2023/03/04 00:11:32;;;;;;;396.25;140.15;;;;;;;5.04;100.00;99695.22;317991;31;5305;-74
2023/03/04 00:11:43;;;;;;;398.42;136.52;;;;;;;5.04;100.00;99696.09;316551;31;4163;-75
2023/03/04 00:11:53;;;;;;;396.63;139.67;;;;;;;5.03;100.00;99693.53;316541;31;1565;-76
2023/03/04 00:12:06;;;;;;;395.00;140.27;;;;;;;4.92;100.00;99678.13;312893;31;4345;-75
2023/03/04 00:12:17;;;;;;;396.83;138.85;;;;;;;5.03;100.00;99693.53;315949;31;2103;-75
2023/03/04 00:12:27;;;;;;;399.93;139.17;;;;;;;5.05;100.00;99692.63;310190;31;4672;-74
2023/03/04 00:12:37;;;;;;;397.92;142.07;;;;;;;5.05;100.00;99702.13;309767;31;3485;-74
2023/03/04 00:12:48;;;;;;;397.40;146.67;;;;;;;5.03;100.00;99696.13;303502;31;5168;-73
2023/03/04 00:12:58;;;;;;;397.77;145.82;;;;;;;5.05;100.00;99696.94;302707;32;3449;-74
2023/03/04 00:13:08;;;;;;;397.27;146.30;;;;;;;5.06;100.00;99696.06;302615;32;6516;-74
2023/03/04 00:13:21;;;;;;;393.85;142.43;;;;;;;5.06;100.00;99694.31;306187;31;2371;-74
2023/03/04 00:13:31;;;;;;;395.17;145.15;;;;;;;5.05;100.00;99696.94;306329;32;5122;-73
2023/03/04 00:13:41;;;;;;;394.87;144.80;;;;;;;5.06;100.00;99698.66;304812;32;3820;-73
2023/03/04 00:13:53;;;;;;;395.50;143.85;;;;;;;5.06;100.00;99693.47;301889;32;5560;-75
2023/03/04 00:14:04;;;;;;;394.67;140.38;;;;;;;5.06;100.00;99694.31;304196;32;4032;-73
2023/03/04 00:14:14;;;;;;;398.43;140.07;;;;;;;5.07;100.00;99697.78;302196;32;3345;-75
2023/03/04 00:14:25;;;;;;;399.55;144.30;;;;;;;5.05;100.00;99697.81;297282;32;3904;-74
2023/03/04 00:14:35;;;;;;;401.33;147.97;;;;;;;5.04;100.00;99692.63;295940;32;4927;-75
2023/03/04 00:14:45;;;;;;;398.13;149.10;;;;;;;5.06;100.00;99696.06;300216;32;889;-75
2023/03/04 00:14:56;;;;;;;395.57;147.63;;;;;;;5.04;100.00;99706.47;293697;33;4114;-73
2023/03/04 00:15:09;;;;;;;394.92;144.70;;;;;;;4.94;100.00;99684.16;294456;33;4532;-74
2023/03/04 00:15:19;;;;;;;397.05;145.43;;;;;;;4.94;100.00;99695.38;291066;33;4723;-76
2023/03/04 00:15:30;;;;;;;403.23;146.30;;;;;;;4.92;100.00;99691.09;293443;33;2079;-75
2023/03/04 00:15:40;;;;;;;398.08;145.80;;;;;;;4.92;100.00;99701.47;289026;33;3698;-76
2023/03/04 00:15:51;;;;;;;395.47;143.53;;;;;;;4.91;100.00;99695.44;290785;33;4079;-74
2023/03/04 00:16:01;;;;;;;391.85;146.30;;;;;;;4.89;100.00;99694.59;288543;34;4296;-76
2023/03/04 00:16:13;;;;;;;393.17;146.52;;;;;;;4.87;100.00;99692.91;289823;34;4143;-74
2023/03/04 00:16:27;;;;;;;399.02;156.60;;;;;;;4.88;100.00;99689.44;280942;34;3044;-75
2023/03/04 00:16:40;;;;;;;397.18;150.42;;;;;;;4.88;100.00;99689.44;276905;35;4038;-79
2023/03/04 00:16:50;;;;;;;392.58;147.25;;;;;;;4.85;100.00;99685.16;274988;35;5480;-75
2023/03/04 00:17:03;;;;;;;392.00;148.47;;;;;;;4.87;100.00;99688.59;277451;35;4001;-75
2023/03/04 00:17:13;;;;;;;395.65;150.68;;;;;;;4.88;100.00;99690.31;274874;36;888;-74
2023/03/04 00:17:24;;;;;;;392.23;145.33;;;;;;;4.88;100.00;99689.44;272256;35;5964;-75
2023/03/04 00:19:09;;;;;;;389.63;130.91;;;;;;;4.87;100.00;99687.72;2483868;27;25330;-75
2023/03/04 00:19:20;;;;;;;396.95;141.63;;;;;;;4.84;100.00;99675.66;352675;28;1269;-76
2023/03/04 00:19:30;;;;;;;400.50;144.37;;;;;;;4.88;100.00;99692.03;347839;28;4794;-75
2023/03/04 00:19:41;;;;;;;400.42;144.57;;;;;;;4.88;100.00;99687.72;346742;28;1319;-75
2023/03/04 00:19:51;;;;;;;397.60;147.20;;;;;;;4.90;100.00;99685.09;344336;28;5361;-76
2023/03/04 00:20:01;;;;;;;395.17;146.43;;;;;;;4.87;100.00;99680.81;348687;28;3944;-75
2023/03/04 00:20:12;;;;;;;395.17;145.83;;;;;;;4.90;100.00;99687.69;348210;28;5189;-75
2023/03/04 00:20:22;;;;;;;395.20;143.57;;;;;;;4.87;100.00;99678.22;346896;28;3946;-76
2023/03/04 00:20:33;;;;;;;394.57;142.47;;;;;;;4.87;100.00;99682.53;347022;28;5038;-75
2023/03/04 00:20:43;;;;;;;395.08;142.07;;;;;;;4.88;100.00;99690.31;347435;28;896;-74
2023/03/04 00:20:54;;;;;;;390.93;137.60;;;;;;;4.85;100.00;99681.72;344872;28;4953;-74
2023/03/04 00:21:04;;;;;;;392.42;136.30;;;;;;;4.88;100.00;99687.72;347315;28;3750;-75
2023/03/04 00:21:15;;;;;;;393.15;138.57;;;;;;;4.85;100.00;99679.97;346444;28;5168;-74
2023/03/04 00:21:25;;;;;;;397.53;141.70;;;;;;;4.85;100.00;99685.16;345622;28;3586;-74
2023/03/04 00:21:36;;;;;;;394.58;142.27;;;;;;;4.88;100.00;99684.25;346883;28;5085;-74
2023/03/04 00:21:46;;;;;;;393.17;141.60;;;;;;;4.87;100.00;99677.34;348608;28;3845;-74
2023/03/04 00:21:56;;;;;;;392.50;141.77;;;;;;;4.88;100.00;99686.84;348468;28;4915;-74
2023/03/04 00:22:07;;;;;;;394.70;140.57;;;;;;;4.85;100.00;99679.97;346932;28;3916;-74
2023/03/04 00:22:17;;;;;;;397.07;141.10;;;;;;;4.84;100.00;99677.41;346622;28;3505;-74
2023/03/04 00:22:28;;;;;;;397.00;141.43;;;;;;;4.86;100.00;99686.88;348515;28;3957;-74
2023/03/04 00:22:38;;;;;;;397.60;145.10;;;;;;;4.80;100.00;99674.00;348905;28;2957;-75
2023/03/04 00:22:48;;;;;;;392.65;141.80;;;;;;;4.84;100.00;99685.19;349004;28;4394;-77
2023/03/04 00:22:59;;;;;;;392.83;143.20;;;;;;;4.84;100.00;99682.59;348839;28;5285;-75
2023/03/04 00:23:09;;;;;;;395.00;146.00;;;;;;;4.83;100.00;99679.16;346286;28;3308;-75
2023/03/04 00:23:20;;;;;;;397.93;148.17;;;;;;;4.83;100.00;99676.56;348376;28;4736;-77
2023/03/04 00:23:30;;;;;;;394.95;142.52;;;;;;;4.83;100.00;99684.31;345981;28;4466;-76
2023/03/04 00:23:42;;;;;;;393.13;138.27;;;;;;;4.83;100.00;99692.09;348036;28;5046;-74
2023/03/04 00:23:52;;;;;;;396.98;144.80;;;;;;;4.83;100.00;99681.72;343788;28;3763;-74
2023/03/04 00:24:03;;;;;;;391.90;142.70;;;;;;;4.81;100.00;99678.31;343268;28;4990;-75
2023/03/04 00:24:13;;;;;;;391.23;142.50;;;;;;;4.76;100.00;99674.97;345144;28;3934;-75
2023/03/04 00:24:24;;;;;;;387.85;138.30;;;;;;;4.83;100.00;99680.88;341960;28;3336;-75
2023/03/04 00:24:35;;;;;;;388.27;139.57;;;;;;;4.83;100.00;99680.88;342290;28;3269;-75
2023/03/04 00:24:46;;;;;;;388.25;135.40;;;;;;;4.82;100.00;99685.22;344475;28;2770;-76
2023/03/04 00:24:56;;;;;;;389.40;132.90;;;;;;;4.81;100.00;99683.50;345188;28;3788;-74
2023/03/04 00:25:06;;;;;;;391.25;134.13;;;;;;;4.82;100.00;99693.00;346761;28;3170;-75
2023/03/04 00:25:17;;;;;;;392.90;139.40;;;;;;;4.80;100.00;99678.34;344337;28;2920;-75
2023/03/04 00:25:27;;;;;;;399.08;143.20;;;;;;;4.82;100.00;99690.41;347225;28;3372;-78
2023/03/04 00:25:38;;;;;;;401.50;143.60;;;;;;;4.77;100.00;99686.16;344907;28;3396;-74
2023/03/04 00:25:48;;;;;;;402.13;141.43;;;;;;;4.79;100.00;99690.44;347219;28;1418;-75
2023/03/04 00:25:58;;;;;;;398.00;139.80;;;;;;;4.78;100.00;99688.72;344914;28;3912;-75
2023/03/04 00:26:09;;;;;;;399.73;143.43;;;;;;;4.78;100.00;99688.72;347870;28;5310;-75
2023/03/04 00:26:19;;;;;;;398.17;144.27;;;;;;;4.79;100.00;99693.03;342146;28;3886;-74
2023/03/04 00:26:30;;;;;;;393.23;141.80;;;;;;;4.77;100.00;99681.84;341549;28;4904;-76
2023/03/04 00:26:40;;;;;;;394.53;142.40;;;;;;;4.81;100.00;99693.88;340058;28;3879;-74
2023/03/04 00:26:50;;;;;;;398.10;145.40;;;;;;;4.78;100.00;99693.91;339494;29;5017;-74
2023/03/04 00:27:01;;;;;;;397.63;146.50;;;;;;;4.75;100.00;99683.63;340794;29;927;-74
2023/03/04 00:27:11;;;;;;;395.87;147.93;;;;;;;4.79;100.00;99694.78;338401;28;4476;-75
2023/03/04 00:27:23;;;;;;;395.40;145.43;;;;;;;4.78;100.00;99693.91;340298;28;1423;-76
2023/03/04 00:27:34;;;;;;;396.70;147.00;;;;;;;4.79;100.00;99690.44;340647;28;5095;-75
2023/03/04 00:27:44;;;;;;;397.30;146.53;;;;;;;4.77;100.00;99680.97;340288;28;3608;-74
2023/03/04 00:27:54;;;;;;;399.38;150.40;;;;;;;4.78;100.00;99698.25;338915;28;3335;-75
2023/03/04 00:28:05;;;;;;;399.53;146.97;;;;;;;4.77;100.00;99694.78;341910;28;1910;-76
2023/03/04 00:28:15;;;;;;;398.33;146.77;;;;;;;4.74;100.00;99692.28;338883;28;4075;-74
2023/03/04 00:28:26;;;;;;;398.50;144.23;;;;;;;4.72;100.00;99694.03;344457;28;1879;-74
2023/03/04 00:28:38;;;;;;;398.23;143.63;;;;;;;4.70;100.00;99693.22;340279;28;4386;-75
2023/03/04 00:28:48;;;;;;;397.23;142.30;;;;;;;4.71;100.00;99696.66;339360;28;3779;-73
2023/03/04 00:28:58;;;;;;;397.03;144.10;;;;;;;4.70;100.00;99694.94;338654;28;5261;-75
2023/03/04 00:29:09;;;;;;;401.70;150.18;;;;;;;4.71;100.00;99701.84;341168;28;4102;-75
2023/03/04 00:29:20;;;;;;;397.60;148.47;;;;;;;4.72;100.00;99699.22;336876;29;3345;-75
2023/03/04 00:29:31;;;;;;;397.13;147.63;;;;;;;4.72;100.00;99699.22;337508;29;2768;-74
2023/03/04 00:29:41;;;;;;;393.00;148.47;;;;;;;4.68;100.00;99687.19;336172;29;3685;-75
2023/03/04 00:29:52;;;;;;;396.80;152.57;;;;;;;4.72;100.00;99698.38;338100;29;3937;-75
2023/03/04 00:30:03;;;;;;;397.27;150.67;;;;;;;4.72;100.00;99694.03;334405;29;4840;-74
2023/03/04 00:30:14;;;;;;;392.38;144.27;;;;;;;4.73;100.00;99700.94;336153;29;3910;-74
2023/03/04 00:30:24;;;;;;;396.38;140.20;;;;;;;4.74;100.00;99697.47;335817;29;2979;-74
2023/03/04 00:30:35;;;;;;;401.97;142.73;;;;;;;4.72;100.00;99694.03;330888;29;4583;-74
2023/03/04 00:30:45;;;;;;;403.63;149.37;;;;;;;4.72;100.00;99691.44;329067;29;3026;-75
2023/03/04 00:30:56;;;;;;;405.63;155.60;;;;;;;4.71;100.00;99688.88;330333;29;4616;-75
2023/03/04 00:31:07;;;;;;;404.33;156.05;;;;;;;4.72;100.00;99694.03;329993;29;5152;-75
2023/03/04 00:31:17;;;;;;;406.88;151.00;;;;;;;4.73;100.00;99692.31;328740;29;5249;-75
2023/03/04 00:31:27;;;;;;;403.13;149.50;;;;;;;4.74;100.00;99692.28;329077;30;1271;-75
2023/03/04 00:31:38;;;;;;;403.83;152.52;;;;;;;4.77;100.00;99697.38;333185;29;3769;-75
2023/03/04 00:31:48;;;;;;;402.60;156.17;;;;;;;4.76;100.00;99690.53;330448;29;3732;-75
2023/03/04 00:31:58;;;;;;;405.15;155.48;;;;;;;4.76;100.00;99695.72;326814;29;3211;-75
2023/03/04 00:32:09;;;;;;;401.43;156.27;;;;;;;4.76;100.00;99693.13;332435;29;4955;-75
2023/03/04 00:32:19;;;;;;;402.15;159.90;;;;;;;4.75;100.00;99694.00;334050;29;3560;-75
2023/03/04 00:32:30;;;;;;;400.90;161.27;;;;;;;4.77;100.00;99691.34;334250;29;3159;-76
2023/03/04 00:32:40;;;;;;;408.63;168.70;;;;;;;4.77;100.00;99694.78;328105;30;5608;-74
2023/03/04 00:32:50;;;;;;;405.53;164.27;;;;;;;4.77;100.00;99692.22;333561;29;2751;-74
2023/03/04 00:33:01;;;;;;;405.10;159.40;;;;;;;4.78;100.00;99688.72;335180;29;5312;-74
2023/03/04 00:33:11;;;;;;;396.50;148.52;;;;;;;4.77;100.00;99689.63;332967;29;1346;-74
2023/03/04 00:33:22;;;;;;;403.33;152.23;;;;;;;4.79;100.00;99690.44;328934;29;5023;-74
2023/03/04 00:33:32;;;;;;;399.95;149.75;;;;;;;4.78;100.00;99687.88;331902;29;2301;-75
2023/03/04 00:33:43;;;;;;;401.07;150.40;;;;;;;4.79;100.00;99695.63;332137;29;4136;-74
2023/03/04 00:33:53;;;;;;;395.52;150.57;;;;;;;4.75;100.00;99688.81;326797;30;5253;-74
2023/03/04 00:34:03;;;;;;;400.23;156.57;;;;;;;4.80;100.00;99693.91;325141;30;3884;-74
2023/03/04 00:34:14;;;;;;;401.03;155.00;;;;;;;4.80;100.00;99689.56;322492;30;4981;-74
2023/03/04 00:34:24;;;;;;;403.47;154.07;;;;;;;4.78;100.00;99680.09;324021;30;4083;-74
2023/03/04 00:34:35;;;;;;;400.60;155.23;;;;;;;4.81;100.00;99698.19;320864;30;3005;-74
2023/03/04 00:34:45;;;;;;;400.17;158.13;;;;;;;4.79;100.00;99694.78;319903;30;3574;-74
2023/03/04 00:34:56;;;;;;;396.80;158.07;;;;;;;4.79;100.00;99692.19;322202;30;5223;-76
2023/03/04 00:35:07;;;;;;;393.63;155.93;;;;;;;4.80;100.00;99694.75;322502;30;3886;-76
2023/03/04 00:35:17;;;;;;;389.02;150.40;;;;;;;4.84;100.00;99693.81;320591;30;5263;-73
2023/03/04 00:35:28;;;;;;;392.33;150.87;;;;;;;4.82;100.00;99694.72;320938;30;3908;-74
2023/03/04 00:35:38;;;;;;;395.67;150.48;;;;;;;4.82;100.00;99694.72;317168;31;3137;-74
2023/03/04 00:35:48;;;;;;;400.30;154.53;;;;;;;4.79;100.00;99680.06;314565;30;4801;-74
2023/03/04 00:35:59;;;;;;;399.50;151.13;;;;;;;4.84;100.00;99688.63;315957;30;3230;-75
2023/03/04 00:36:10;;;;;;;402.73;152.63;;;;;;;4.83;100.00;99686.06;312721;31;4118;-75
2023/03/04 00:36:20;;;;;;;403.40;156.18;;;;;;;4.84;100.00;99687.78;311504;31;5226;-75
2023/03/04 00:36:30;;;;;;;401.73;154.80;;;;;;;4.83;100.00;99686.94;311641;31;3369;-75
2023/03/04 00:36:43;;;;;;;400.37;156.70;;;;;;;4.84;100.00;99682.59;307257;31;3490;-74
2023/03/04 00:36:59;;;;;;;400.33;157.63;;;;;;;4.85;100.00;99685.16;311181;31;4117;-75
2023/03/04 00:37:10;;;;;;;403.20;158.10;;;;;;;4.84;100.00;99682.59;307361;32;1696;-75
2023/03/04 00:37:20;;;;;;;407.52;160.32;;;;;;;4.82;100.00;99680.03;305413;31;5195;-74
2023/03/04 00:37:31;;;;;;;407.70;158.50;;;;;;;4.84;100.00;99682.59;308182;31;2983;-74
2023/03/04 00:37:41;;;;;;;405.98;158.05;;;;;;;4.81;100.00;99688.69;309733;31;4862;-74
2023/03/04 00:37:51;;;;;;;400.60;152.83;;;;;;;4.83;100.00;99686.94;305359;31;2747;-74
2023/03/04 00:38:02;;;;;;;396.25;151.30;;;;;;;4.80;100.00;99676.59;304415;31;3971;-73
2023/03/04 00:38:12;;;;;;;394.87;148.57;;;;;;;4.84;100.00;99683.44;307518;32;1446;-74
2023/03/04 00:38:23;;;;;;;394.25;147.00;;;;;;;4.80;100.00;99681.78;301747;32;5054;-74
2023/03/04 00:38:33;;;;;;;396.57;145.77;;;;;;;4.81;100.00;99677.47;304102;32;4980;-74
2023/03/04 00:38:44;;;;;;;399.27;148.95;;;;;;;4.81;100.00;99683.50;301902;32;4937;-76
2023/03/04 00:38:55;;;;;;;406.07;152.87;;;;;;;4.81;100.00;99686.09;302015;32;1233;-76
2023/03/04 00:39:05;;;;;;;405.25;153.85;;;;;;;4.79;100.00;99679.22;301330;32;5020;-74
2023/03/04 00:39:16;;;;;;;405.70;154.77;;;;;;;4.78;100.00;99678.38;298518;32;4802;-74
2023/03/04 00:39:27;;;;;;;398.92;152.02;;;;;;;4.74;100.00;99670.69;296275;33;4561;-75
2023/03/04 00:39:37;;;;;;;399.73;151.85;;;;;;;4.79;100.00;99682.66;291476;33;6054;-78
2023/03/04 00:39:48;;;;;;;399.30;153.77;;;;;;;4.77;100.00;99687.03;290503;33;4750;-75
2023/03/04 00:39:58;;;;;;;399.33;158.18;;;;;;;4.78;100.00;99686.13;291131;33;3821;-76
2023/03/04 00:40:09;;;;;;;398.37;155.10;;;;;;;4.76;100.00;99676.72;294620;33;5344;-75
2023/03/04 00:40:20;;;;;;;395.95;154.27;;;;;;;4.77;100.00;99678.38;285558;33;6154;-75
2023/03/04 00:40:30;;;;;;;395.55;153.88;;;;;;;4.78;100.00;99680.94;285654;33;7226;-74
2023/03/04 00:40:42;;;;;;;398.07;159.90;;;;;;;4.79;100.00;99682.66;286752;34;3757;-74
2023/03/04 00:40:52;;;;;;;398.88;157.30;;;;;;;4.79;100.00;99680.06;282229;34;7360;-75
2023/03/04 00:41:03;;;;;;;397.75;152.93;;;;;;;4.76;100.00;99677.56;280028;34;7207;-75
2023/03/04 00:41:13;;;;;;;394.30;147.70;;;;;;;4.77;100.00;99676.66;281498;34;7075;-75
2023/03/04 00:41:24;;;;;;;392.80;147.97;;;;;;;4.80;100.00;99680.94;278463;35;4178;-75
2023/03/04 00:41:34;;;;;;;392.40;150.03;;;;;;;4.78;100.00;99678.38;278753;35;6913;-75
2023/03/04 00:41:45;;;;;;;390.00;151.07;;;;;;;4.78;100.00;99680.94;275861;35;8109;-74
2023/03/04 00:41:55;;;;;;;395.63;158.80;;;;;;;4.79;100.00;99680.06;276340;35;3005;-75
2023/03/04 00:42:06;;;;;;;404.25;161.85;;;;;;;4.77;100.00;99679.25;272531;35;5614;-75
2023/03/04 00:43:40;;;;;;;386.06;149.87;;;;;;;4.77;100.00;99676.66;2489332;27;20482;-74
2023/03/04 00:43:51;;;;;;;395.37;151.10;;;;;;;4.72;100.00;99675.91;351617;27;5047;-74
2023/03/04 00:44:01;;;;;;;399.30;151.73;;;;;;;4.76;100.00;99680.16;351756;28;1037;-74
2023/03/04 00:44:11;;;;;;;401.95;149.82;;;;;;;4.77;100.00;99671.47;347943;28;4936;-74
2023/03/04 00:44:22;;;;;;;401.97;149.20;;;;;;;4.70;100.00;99662.09;348350;28;3088;-74
2023/03/04 00:44:32;;;;;;;395.63;147.53;;;;;;;4.74;100.00;99670.69;347005;28;4973;-73
2023/03/04 00:44:42;;;;;;;391.73;151.05;;;;;;;4.76;100.00;99672.38;347082;28;2818;-73
2023/03/04 00:44:53;;;;;;;395.33;147.87;;;;;;;4.73;100.00;99668.97;346577;28;5030;-74
2023/03/04 00:45:04;;;;;;;398.50;147.65;;;;;;;4.76;100.00;99677.56;347425;28;1212;-74
2023/03/04 00:45:14;;;;;;;402.77;153.13;;;;;;;4.75;100.00;99678.44;346283;28;4419;-74
2023/03/04 00:45:25;;;;;;;399.48;158.20;;;;;;;4.77;100.00;99671.47;347346;28;3939;-74
2023/03/04 00:45:35;;;;;;;402.33;160.00;;;;;;;4.73;100.00;99669.84;346573;28;3068;-74
2023/03/04 00:45:47;;;;;;;397.45;154.32;;;;;;;4.73;100.00;99669.84;350354;28;2016;-76
2023/03/04 00:45:58;;;;;;;397.62;151.52;;;;;;;4.76;100.00;99677.56;347127;28;4771;-74
2023/03/04 00:46:09;;;;;;;394.42;151.10;;;;;;;4.76;100.00;99674.97;346281;28;4158;-73
2023/03/04 00:46:19;;;;;;;396.13;152.13;;;;;;;4.74;100.00;99676.72;344822;28;5034;-75
2023/03/04 00:46:30;;;;;;;393.17;151.10;;;;;;;4.73;100.00;99677.63;346857;28;4065;-74
2023/03/04 00:46:40;;;;;;;391.15;148.50;;;;;;;4.78;100.00;99680.94;347802;28;5263;-74
2023/03/04 00:46:51;;;;;;;394.80;151.07;;;;;;;4.70;100.00;99669.88;346146;28;4435;-74
2023/03/04 00:47:01;;;;;;;395.20;152.17;;;;;;;4.78;100.00;99677.50;345210;28;5119;-74
2023/03/04 00:47:11;;;;;;;398.00;151.13;;;;;;;4.76;100.00;99677.56;344253;28;4736;-74
2023/03/04 00:47:22;;;;;;;393.30;147.10;;;;;;;4.76;100.00;99674.97;347855;28;5301;-74
2023/03/04 00:47:32;;;;;;;392.23;147.00;;;;;;;4.78;100.00;99677.50;346932;28;4174;-74
2023/03/04 00:47:43;;;;;;;392.40;149.70;;;;;;;4.77;100.00;99676.66;345384;28;5096;-74
2023/03/04 00:47:54;;;;;;;390.65;151.32;;;;;;;4.78;100.00;99688.72;344917;28;3658;-74
2023/03/04 00:48:04;;;;;;;390.48;149.88;;;;;;;4.75;100.00;99678.44;344213;28;5067;-75
2023/03/04 00:48:15;;;;;;;391.90;149.00;;;;;;;4.76;100.00;99676.72;344540;28;2914;-74
2023/03/04 00:48:25;;;;;;;393.60;146.18;;;;;;;4.75;100.00;99673.25;346233;28;4971;-74
2023/03/04 00:48:37;;;;;;;396.05;153.52;;;;;;;4.74;100.00;99668.97;347093;28;4137;-74
2023/03/04 00:48:47;;;;;;;398.85;162.15;;;;;;;4.78;100.00;99680.94;346050;28;4788;-74
2023/03/04 00:48:58;;;;;;;401.43;162.63;;;;;;;4.79;100.00;99680.06;344771;28;1362;-74
2023/03/04 00:49:08;;;;;;;401.67;158.47;;;;;;;4.76;100.00;99680.16;345200;28;3950;-74
2023/03/04 00:49:19;;;;;;;401.27;151.93;;;;;;;4.76;100.00;99680.16;347860;28;974;-74
2023/03/04 00:49:29;;;;;;;398.27;152.50;;;;;;;4.72;100.00;99673.31;345366;28;4025;-74
2023/03/04 00:49:39;;;;;;;398.95;156.40;;;;;;;4.73;100.00;99684.53;341604;28;1387;-74
2023/03/04 00:49:50;;;;;;;395.97;155.37;;;;;;;4.73;100.00;99689.72;340363;28;4187;-74
2023/03/04 00:50:00;;;;;;;397.55;154.40;;;;;;;4.69;100.00;99686.31;339260;28;3555;-74
2023/03/04 00:50:11;;;;;;;395.00;152.80;;;;;;;4.64;100.00;99686.38;341438;28;4018;-74
2023/03/04 00:50:21;;;;;;;395.48;154.18;;;;;;;4.62;100.00;99682.09;342224;28;3243;-74
2023/03/04 00:50:32;;;;;;;399.90;155.33;;;;;;;4.62;100.00;99676.91;341341;28;4869;-75
2023/03/04 00:50:42;;;;;;;403.77;159.98;;;;;;;4.59;100.00;99676.97;344586;28;3075;-74
2023/03/04 00:50:53;;;;;;;404.83;162.85;;;;;;;4.63;100.00;99679.50;342272;28;3762;-74
2023/03/04 00:51:03;;;;;;;397.63;155.33;;;;;;;4.65;100.00;99687.25;342705;28;3431;-74
2023/03/04 00:51:14;;;;;;;392.92;152.77;;;;;;;4.66;100.00;99683.78;341621;28;4034;-74
2023/03/04 00:51:24;;;;;;;394.30;154.70;;;;;;;4.66;100.00;99689.81;338617;29;3316;-74
2023/03/04 00:51:35;;;;;;;398.00;158.40;;;;;;;4.67;100.00;99682.91;337786;28;4061;-74
2023/03/04 00:51:45;;;;;;;399.17;156.77;;;;;;;4.67;100.00;99691.53;335001;29;4915;-74
2023/03/04 00:51:55;;;;;;;398.23;155.93;;;;;;;4.66;100.00;99681.19;336674;29;4626;-74